sensor_id;sensor_type;location;lat;lon;timestamp;temperature;humidity
10468;DHT22;5281;48.878;9.394;2023-08-24T00:00:16;22.00;99.90
10468;DHT22;5281;48.878;9.394;2023-08-24T00:02:43;21.80;99.90
10468;DHT22;5281;48.878;9.394;2023-08-24T00:05:10;21.80;99.90
10468;DHT22;5281;48.878;9.394;2023-08-24T00:07:37;21.70;99.90
10468;DHT22;5281;48.878;9.394;2023-08-24T00:10:04;21.60;99.90
10468;DHT22;5281;48.878;9.394;2023-08-24T00:12:32;21.50;99.90
10468;DHT22;5281;48.878;9.394;2023-08-24T00:14:59;21.40;99.90
10468;DHT22;5281;48.878;9.394;2023-08-24T00:17:27;21.40;99.90
10468;DHT22;5281;48.878;9.394;2023-08-24T00:19:54;21.40;99.90
10468;DHT22;5281;48.878;9.394;2023-08-24T00:22:20;21.30;99.90
10468;DHT22;5281;48.878;9.394;2023-08-24T00:24:47;21.20;99.90
10468;DHT22;5281;48.878;9.394;2023-08-24T00:27:14;21.10;99.90
10468;DHT22;5281;48.878;9.394;2023-08-24T00:29:40;21.00;99.90
10468;DHT22;5281;48.878;9.394;2023-08-24T00:32:07;20.90;99.90
10468;DHT22;5281;48.878;9.394;2023-08-24T00:34:35;20.80;99.90
10468;DHT22;5281;48.878;9.394;2023-08-24T00:37:02;20.80;99.90
10468;DHT22;5281;48.878;9.394;2023-08-24T00:39:29;20.60;99.90
10468;DHT22;5281;48.878;9.394;2023-08-24T00:41:55;20.60;99.90
10468;DHT22;5281;48.878;9.394;2023-08-24T00:44:22;20.50;99.90
10468;DHT22;5281;48.878;9.394;2023-08-24T00:46:49;20.50;99.90
10468;DHT22;5281;48.878;9.394;2023-08-24T00:49:16;20.50;99.90
10468;DHT22;5281;48.878;9.394;2023-08-24T00:51:44;20.40;99.90
10468;DHT22;5281;48.878;9.394;2023-08-24T00:54:11;20.30;99.90
10468;DHT22;5281;48.878;9.394;2023-08-24T00:56:37;20.20;99.90
10468;DHT22;5281;48.878;9.394;2023-08-24T00:59:04;20.30;99.90
10468;DHT22;5281;48.878;9.394;2023-08-24T01:01:31;20.30;99.90
10468;DHT22;5281;48.878;9.394;2023-08-24T01:03:58;20.30;99.90
10468;DHT22;5281;48.878;9.394;2023-08-24T01:06:24;20.20;99.90
10468;DHT22;5281;48.878;9.394;2023-08-24T01:08:52;20.30;99.90
10468;DHT22;5281;48.878;9.394;2023-08-24T01:11:25;20.30;99.90
10468;DHT22;5281;48.878;9.394;2023-08-24T01:14:01;20.30;99.90
10468;DHT22;5281;48.878;9.394;2023-08-24T01:16:32;20.30;99.90
10468;DHT22;5281;48.878;9.394;2023-08-24T01:19:03;20.30;99.90
10468;DHT22;5281;48.878;9.394;2023-08-24T01:21:32;20.40;99.90
10468;DHT22;5281;48.878;9.394;2023-08-24T01:24:08;20.40;99.90
10468;DHT22;5281;48.878;9.394;2023-08-24T01:26:39;20.40;99.90
10468;DHT22;5281;48.878;9.394;2023-08-24T01:29:06;20.40;99.90
10468;DHT22;5281;48.878;9.394;2023-08-24T01:31:33;20.40;99.90
10468;DHT22;5281;48.878;9.394;2023-08-24T01:34:00;20.50;99.90
10468;DHT22;5281;48.878;9.394;2023-08-24T01:36:27;20.50;99.90
10468;DHT22;5281;48.878;9.394;2023-08-24T01:38:59;20.50;99.90
10468;DHT22;5281;48.878;9.394;2023-08-24T01:41:34;20.50;99.90
10468;DHT22;5281;48.878;9.394;2023-08-24T01:44:06;20.50;99.90
10468;DHT22;5281;48.878;9.394;2023-08-24T01:46:34;20.50;99.90
10468;DHT22;5281;48.878;9.394;2023-08-24T01:49:03;20.50;99.90
10468;DHT22;5281;48.878;9.394;2023-08-24T01:51:30;20.50;99.90
10468;DHT22;5281;48.878;9.394;2023-08-24T01:53:57;20.40;99.90
10468;DHT22;5281;48.878;9.394;2023-08-24T01:56:25;20.40;99.90
10468;DHT22;5281;48.878;9.394;2023-08-24T01:58:51;20.40;99.90
10468;DHT22;5281;48.878;9.394;2023-08-24T02:01:19;20.20;99.90
10468;DHT22;5281;48.878;9.394;2023-08-24T02:03:46;20.30;99.90
10468;DHT22;5281;48.878;9.394;2023-08-24T02:06:13;20.40;99.90
10468;DHT22;5281;48.878;9.394;2023-08-24T02:08:39;20.50;99.90
10468;DHT22;5281;48.878;9.394;2023-08-24T02:11:07;20.40;99.90
10468;DHT22;5281;48.878;9.394;2023-08-24T02:13:34;20.40;99.90
10468;DHT22;5281;48.878;9.394;2023-08-24T02:16:01;20.50;99.90
10468;DHT22;5281;48.878;9.394;2023-08-24T02:18:29;20.60;99.90
10468;DHT22;5281;48.878;9.394;2023-08-24T02:20:56;20.60;99.90
10468;DHT22;5281;48.878;9.394;2023-08-24T02:23:23;20.50;99.90
10468;DHT22;5281;48.878;9.394;2023-08-24T02:25:50;20.60;99.90
10468;DHT22;5281;48.878;9.394;2023-08-24T02:28:16;20.60;99.90
10468;DHT22;5281;48.878;9.394;2023-08-24T02:30:43;20.60;99.90
10468;DHT22;5281;48.878;9.394;2023-08-24T02:33:10;20.60;99.90
10468;DHT22;5281;48.878;9.394;2023-08-24T02:35:38;20.60;99.90
10468;DHT22;5281;48.878;9.394;2023-08-24T02:38:05;20.60;99.90
10468;DHT22;5281;48.878;9.394;2023-08-24T02:40:32;20.50;99.90
10468;DHT22;5281;48.878;9.394;2023-08-24T02:42:58;20.50;99.90
10468;DHT22;5281;48.878;9.394;2023-08-24T02:45:25;20.60;99.90
10468;DHT22;5281;48.878;9.394;2023-08-24T02:47:52;20.60;99.90
10468;DHT22;5281;48.878;9.394;2023-08-24T02:50:18;20.60;99.90
10468;DHT22;5281;48.878;9.394;2023-08-24T02:52:46;20.60;99.90
10468;DHT22;5281;48.878;9.394;2023-08-24T02:55:13;20.60;99.90
10468;DHT22;5281;48.878;9.394;2023-08-24T02:57:40;20.60;99.90
10468;DHT22;5281;48.878;9.394;2023-08-24T03:00:08;20.50;99.90
10468;DHT22;5281;48.878;9.394;2023-08-24T03:02:35;20.50;99.90
10468;DHT22;5281;48.878;9.394;2023-08-24T03:05:01;20.50;99.90
10468;DHT22;5281;48.878;9.394;2023-08-24T03:07:28;20.50;99.90
10468;DHT22;5281;48.878;9.394;2023-08-24T03:09:56;20.40;99.90
10468;DHT22;5281;48.878;9.394;2023-08-24T03:12:23;20.40;99.90
10468;DHT22;5281;48.878;9.394;2023-08-24T03:14:51;20.50;99.90
10468;DHT22;5281;48.878;9.394;2023-08-24T03:17:18;20.50;99.90
10468;DHT22;5281;48.878;9.394;2023-08-24T03:19:45;20.50;99.90
10468;DHT22;5281;48.878;9.394;2023-08-24T03:22:11;20.60;99.90
10468;DHT22;5281;48.878;9.394;2023-08-24T03:24:38;20.50;99.90
10468;DHT22;5281;48.878;9.394;2023-08-24T03:27:06;20.40;99.90
10468;DHT22;5281;48.878;9.394;2023-08-24T03:29:33;20.40;99.90
10468;DHT22;5281;48.878;9.394;2023-08-24T03:32:00;20.30;99.90
10468;DHT22;5281;48.878;9.394;2023-08-24T03:34:26;20.20;99.90
10468;DHT22;5281;48.878;9.394;2023-08-24T03:36:55;20.20;99.90
10468;DHT22;5281;48.878;9.394;2023-08-24T03:39:21;20.10;99.90
10468;DHT22;5281;48.878;9.394;2023-08-24T03:41:48;20.10;99.90
10468;DHT22;5281;48.878;9.394;2023-08-24T03:44:16;20.10;99.90
10468;DHT22;5281;48.878;9.394;2023-08-24T03:46:43;20.00;99.90
10468;DHT22;5281;48.878;9.394;2023-08-24T03:49:09;19.80;99.90
10468;DHT22;5281;48.878;9.394;2023-08-24T03:51:36;19.70;99.90
10468;DHT22;5281;48.878;9.394;2023-08-24T03:54:03;19.70;99.90
10468;DHT22;5281;48.878;9.394;2023-08-24T03:56:31;19.80;99.90
10468;DHT22;5281;48.878;9.394;2023-08-24T03:58:57;19.70;99.90
10468;DHT22;5281;48.878;9.394;2023-08-24T04:01:25;19.70;99.90
10468;DHT22;5281;48.878;9.394;2023-08-24T04:03:52;19.60;99.90
10468;DHT22;5281;48.878;9.394;2023-08-24T04:06:18;19.70;99.90
10468;DHT22;5281;48.878;9.394;2023-08-24T04:08:45;19.80;99.90
10468;DHT22;5281;48.878;9.394;2023-08-24T04:11:12;19.80;99.90
10468;DHT22;5281;48.878;9.394;2023-08-24T04:13:39;19.90;99.90
10468;DHT22;5281;48.878;9.394;2023-08-24T04:16:06;20.00;99.90
10468;DHT22;5281;48.878;9.394;2023-08-24T04:18:34;20.10;99.90
10468;DHT22;5281;48.878;9.394;2023-08-24T04:21:00;20.10;99.90
10468;DHT22;5281;48.878;9.394;2023-08-24T04:23:27;20.20;99.90
10468;DHT22;5281;48.878;9.394;2023-08-24T04:25:54;20.30;99.90
10468;DHT22;5281;48.878;9.394;2023-08-24T04:28:21;20.30;99.90
10468;DHT22;5281;48.878;9.394;2023-08-24T04:30:51;20.40;99.90
10468;DHT22;5281;48.878;9.394;2023-08-24T04:33:18;20.60;99.90
10468;DHT22;5281;48.878;9.394;2023-08-24T04:35:47;20.70;99.90
10468;DHT22;5281;48.878;9.394;2023-08-24T04:38:14;20.80;99.90
10468;DHT22;5281;48.878;9.394;2023-08-24T04:40:49;20.80;99.90
10468;DHT22;5281;48.878;9.394;2023-08-24T04:43:16;20.90;99.90
10468;DHT22;5281;48.878;9.394;2023-08-24T04:45:46;21.00;99.90
10468;DHT22;5281;48.878;9.394;2023-08-24T04:48:13;21.00;99.90
10468;DHT22;5281;48.878;9.394;2023-08-24T04:50:43;21.10;99.90
10468;DHT22;5281;48.878;9.394;2023-08-24T04:53:12;21.10;99.90
10468;DHT22;5281;48.878;9.394;2023-08-24T04:55:39;21.20;99.90
10468;DHT22;5281;48.878;9.394;2023-08-24T04:58:07;21.30;99.90
10468;DHT22;5281;48.878;9.394;2023-08-24T05:00:33;21.40;99.90
10468;DHT22;5281;48.878;9.394;2023-08-24T05:03:00;21.50;99.90
10468;DHT22;5281;48.878;9.394;2023-08-24T05:05:28;21.60;99.90
10468;DHT22;5281;48.878;9.394;2023-08-24T05:07:55;21.70;99.90
10468;DHT22;5281;48.878;9.394;2023-08-24T05:10:24;21.80;99.90
10468;DHT22;5281;48.878;9.394;2023-08-24T05:12:51;21.90;99.90
10468;DHT22;5281;48.878;9.394;2023-08-24T05:15:18;21.90;99.90
10468;DHT22;5281;48.878;9.394;2023-08-24T05:17:44;21.80;99.90
10468;DHT22;5281;48.878;9.394;2023-08-24T05:20:11;21.80;99.90
10468;DHT22;5281;48.878;9.394;2023-08-24T05:22:38;22.10;99.90
10468;DHT22;5281;48.878;9.394;2023-08-24T05:25:06;22.20;99.90
10468;DHT22;5281;48.878;9.394;2023-08-24T05:27:34;22.20;99.90
10468;DHT22;5281;48.878;9.394;2023-08-24T05:30:00;22.20;99.90
10468;DHT22;5281;48.878;9.394;2023-08-24T05:32:27;22.50;99.90
10468;DHT22;5281;48.878;9.394;2023-08-24T05:34:54;22.50;99.90
10468;DHT22;5281;48.878;9.394;2023-08-24T05:37:20;22.40;99.90
10468;DHT22;5281;48.878;9.394;2023-08-24T05:39:47;22.40;99.90
10468;DHT22;5281;48.878;9.394;2023-08-24T05:42:14;22.60;99.90
10468;DHT22;5281;48.878;9.394;2023-08-24T05:44:42;22.60;99.90
10468;DHT22;5281;48.878;9.394;2023-08-24T05:47:08;22.90;99.90
10468;DHT22;5281;48.878;9.394;2023-08-24T05:49:35;23.50;99.90
10468;DHT22;5281;48.878;9.394;2023-08-24T05:52:02;23.90;99.90
10468;DHT22;5281;48.878;9.394;2023-08-24T05:54:29;24.20;99.90
10468;DHT22;5281;48.878;9.394;2023-08-24T05:56:56;24.80;99.90
10468;DHT22;5281;48.878;9.394;2023-08-24T05:59:25;25.40;99.90
10468;DHT22;5281;48.878;9.394;2023-08-24T06:01:53;26.00;99.90
10468;DHT22;5281;48.878;9.394;2023-08-24T06:04:20;26.50;99.90
10468;DHT22;5281;48.878;9.394;2023-08-24T06:06:47;26.60;99.90
10468;DHT22;5281;48.878;9.394;2023-08-24T06:09:13;26.40;99.90
10468;DHT22;5281;48.878;9.394;2023-08-24T06:11:40;26.20;99.90
10468;DHT22;5281;48.878;9.394;2023-08-24T06:14:07;26.00;99.90
10468;DHT22;5281;48.878;9.394;2023-08-24T06:16:34;25.80;99.90
10468;DHT22;5281;48.878;9.394;2023-08-24T06:19:02;25.60;99.90
10468;DHT22;5281;48.878;9.394;2023-08-24T06:21:29;25.50;99.90
10468;DHT22;5281;48.878;9.394;2023-08-24T06:23:55;25.50;99.90
10468;DHT22;5281;48.878;9.394;2023-08-24T06:26:22;25.60;99.90
10468;DHT22;5281;48.878;9.394;2023-08-24T06:28:48;25.80;99.90
10468;DHT22;5281;48.878;9.394;2023-08-24T06:31:15;26.30;99.90
10468;DHT22;5281;48.878;9.394;2023-08-24T06:33:42;27.20;99.90
10468;DHT22;5281;48.878;9.394;2023-08-24T06:36:10;28.30;99.90
10468;DHT22;5281;48.878;9.394;2023-08-24T06:38:37;29.00;99.90
10468;DHT22;5281;48.878;9.394;2023-08-24T06:41:04;28.90;99.90
10468;DHT22;5281;48.878;9.394;2023-08-24T06:43:31;28.70;99.90
10468;DHT22;5281;48.878;9.394;2023-08-24T06:45:57;28.30;99.90
10468;DHT22;5281;48.878;9.394;2023-08-24T06:48:24;27.60;99.90
10468;DHT22;5281;48.878;9.394;2023-08-24T06:50:51;26.90;99.90
10468;DHT22;5281;48.878;9.394;2023-08-24T06:53:19;26.30;99.90
10468;DHT22;5281;48.878;9.394;2023-08-24T06:55:46;25.80;99.90
10468;DHT22;5281;48.878;9.394;2023-08-24T06:58:12;25.40;99.90
10468;DHT22;5281;48.878;9.394;2023-08-24T07:00:39;25.30;99.90
10468;DHT22;5281;48.878;9.394;2023-08-24T07:03:06;25.30;99.90
10468;DHT22;5281;48.878;9.394;2023-08-24T07:05:33;25.20;99.90
10468;DHT22;5281;48.878;9.394;2023-08-24T07:08:00;25.00;99.90
10468;DHT22;5281;48.878;9.394;2023-08-24T07:10:29;25.10;99.90
10468;DHT22;5281;48.878;9.394;2023-08-24T07:12:56;25.10;99.90
10468;DHT22;5281;48.878;9.394;2023-08-24T07:15:23;25.20;99.90
10468;DHT22;5281;48.878;9.394;2023-08-24T07:17:49;25.40;99.90
10468;DHT22;5281;48.878;9.394;2023-08-24T07:20:16;25.50;99.90
10468;DHT22;5281;48.878;9.394;2023-08-24T07:22:43;25.60;99.90
10468;DHT22;5281;48.878;9.394;2023-08-24T07:25:10;25.80;99.90
10468;DHT22;5281;48.878;9.394;2023-08-24T07:27:39;26.20;99.90
10468;DHT22;5281;48.878;9.394;2023-08-24T07:30:06;27.20;99.90
10468;DHT22;5281;48.878;9.394;2023-08-24T07:32:34;29.00;99.90
10468;DHT22;5281;48.878;9.394;2023-08-24T07:35:01;30.90;99.90
10468;DHT22;5281;48.878;9.394;2023-08-24T07:37:28;32.00;99.90
10468;DHT22;5281;48.878;9.394;2023-08-24T07:39:55;31.90;99.90
10468;DHT22;5281;48.878;9.394;2023-08-24T07:42:22;31.40;99.90
10468;DHT22;5281;48.878;9.394;2023-08-24T07:44:50;30.70;99.90
10468;DHT22;5281;48.878;9.394;2023-08-24T07:47:17;30.20;99.90
10468;DHT22;5281;48.878;9.394;2023-08-24T07:49:43;29.90;99.90
10468;DHT22;5281;48.878;9.394;2023-08-24T07:52:11;29.90;99.90
10468;DHT22;5281;48.878;9.394;2023-08-24T07:54:38;29.80;99.90
10468;DHT22;5281;48.878;9.394;2023-08-24T07:57:04;29.70;99.90
10468;DHT22;5281;48.878;9.394;2023-08-24T07:59:31;29.60;99.90
10468;DHT22;5281;48.878;9.394;2023-08-24T08:01:59;29.80;99.90
10468;DHT22;5281;48.878;9.394;2023-08-24T08:04:26;30.20;99.90
10468;DHT22;5281;48.878;9.394;2023-08-24T08:06:53;31.00;99.90
10468;DHT22;5281;48.878;9.394;2023-08-24T08:09:21;31.10;99.90
10468;DHT22;5281;48.878;9.394;2023-08-24T08:11:48;31.20;99.90
10468;DHT22;5281;48.878;9.394;2023-08-24T08:14:14;32.30;99.90
10468;DHT22;5281;48.878;9.394;2023-08-24T08:16:41;33.60;98.90
10468;DHT22;5281;48.878;9.394;2023-08-24T08:19:09;34.30;96.90
10468;DHT22;5281;48.878;9.394;2023-08-24T08:21:36;35.00;95.40
10468;DHT22;5281;48.878;9.394;2023-08-24T08:24:03;35.50;94.20
10468;DHT22;5281;48.878;9.394;2023-08-24T08:26:29;35.30;93.80
10468;DHT22;5281;48.878;9.394;2023-08-24T08:28:56;34.90;93.20
10468;DHT22;5281;48.878;9.394;2023-08-24T08:31:23;34.50;93.50
10468;DHT22;5281;48.878;9.394;2023-08-24T08:33:49;33.60;94.50
10468;DHT22;5281;48.878;9.394;2023-08-24T08:36:18;33.10;95.30
10468;DHT22;5281;48.878;9.394;2023-08-24T08:38:44;32.80;95.90
10468;DHT22;5281;48.878;9.394;2023-08-24T08:41:12;32.70;95.90
10468;DHT22;5281;48.878;9.394;2023-08-24T08:43:39;32.40;95.90
10468;DHT22;5281;48.878;9.394;2023-08-24T08:46:06;32.00;96.80
10468;DHT22;5281;48.878;9.394;2023-08-24T08:48:33;31.40;97.90
10468;DHT22;5281;48.878;9.394;2023-08-24T08:51:01;31.20;98.20
10468;DHT22;5281;48.878;9.394;2023-08-24T08:53:29;31.00;98.70
10468;DHT22;5281;48.878;9.394;2023-08-24T08:55:56;30.70;99.10
10468;DHT22;5281;48.878;9.394;2023-08-24T08:58:29;30.40;99.90
10468;DHT22;5281;48.878;9.394;2023-08-24T09:00:57;30.10;99.90
10468;DHT22;5281;48.878;9.394;2023-08-24T09:03:26;30.10;99.90
10468;DHT22;5281;48.878;9.394;2023-08-24T09:05:55;30.00;99.90
10468;DHT22;5281;48.878;9.394;2023-08-24T09:08:23;30.00;99.90
10468;DHT22;5281;48.878;9.394;2023-08-24T09:10:51;30.00;99.90
10468;DHT22;5281;48.878;9.394;2023-08-24T09:13:18;29.90;99.90
10468;DHT22;5281;48.878;9.394;2023-08-24T09:15:45;29.80;99.90
10468;DHT22;5281;48.878;9.394;2023-08-24T09:18:12;29.70;99.90
10468;DHT22;5281;48.878;9.394;2023-08-24T09:20:38;29.70;99.90
10468;DHT22;5281;48.878;9.394;2023-08-24T09:23:17;29.70;99.90
10468;DHT22;5281;48.878;9.394;2023-08-24T09:25:45;29.80;99.90
10468;DHT22;5281;48.878;9.394;2023-08-24T09:28:15;29.70;99.90
10468;DHT22;5281;48.878;9.394;2023-08-24T09:30:52;29.60;99.90
10468;DHT22;5281;48.878;9.394;2023-08-24T09:33:20;29.60;99.90
10468;DHT22;5281;48.878;9.394;2023-08-24T09:35:52;29.60;99.90
10468;DHT22;5281;48.878;9.394;2023-08-24T09:38:21;29.70;99.90
10468;DHT22;5281;48.878;9.394;2023-08-24T09:40:51;29.80;99.90
10468;DHT22;5281;48.878;9.394;2023-08-24T09:43:19;29.90;99.90
10468;DHT22;5281;48.878;9.394;2023-08-24T09:45:48;30.00;99.90
10468;DHT22;5281;48.878;9.394;2023-08-24T09:48:15;30.00;99.90
10468;DHT22;5281;48.878;9.394;2023-08-24T09:50:44;30.20;99.90
10468;DHT22;5281;48.878;9.394;2023-08-24T09:53:16;30.30;99.90
10468;DHT22;5281;48.878;9.394;2023-08-24T09:55:45;30.40;99.90
10468;DHT22;5281;48.878;9.394;2023-08-24T09:58:15;30.50;99.90
10468;DHT22;5281;48.878;9.394;2023-08-24T10:00:45;30.70;99.90
10468;DHT22;5281;48.878;9.394;2023-08-24T10:03:15;30.70;99.90
10468;DHT22;5281;48.878;9.394;2023-08-24T10:05:44;30.80;99.90
10468;DHT22;5281;48.878;9.394;2023-08-24T10:08:12;30.90;99.90
10468;DHT22;5281;48.878;9.394;2023-08-24T10:10:41;31.00;99.90
10468;DHT22;5281;48.878;9.394;2023-08-24T10:13:13;31.10;99.90
10468;DHT22;5281;48.878;9.394;2023-08-24T10:15:43;31.20;99.90
10468;DHT22;5281;48.878;9.394;2023-08-24T10:18:12;31.30;99.90
10468;DHT22;5281;48.878;9.394;2023-08-24T10:20:39;31.50;99.90
10468;DHT22;5281;48.878;9.394;2023-08-24T10:23:07;31.60;99.90
10468;DHT22;5281;48.878;9.394;2023-08-24T10:25:35;31.70;99.90
10468;DHT22;5281;48.878;9.394;2023-08-24T10:28:03;31.70;99.90
10468;DHT22;5281;48.878;9.394;2023-08-24T10:30:30;31.70;99.90
10468;DHT22;5281;48.878;9.394;2023-08-24T10:32:59;31.80;99.90
10468;DHT22;5281;48.878;9.394;2023-08-24T10:35:26;32.00;99.90
10468;DHT22;5281;48.878;9.394;2023-08-24T10:37:54;32.10;99.90
10468;DHT22;5281;48.878;9.394;2023-08-24T10:40:34;32.10;99.90
10468;DHT22;5281;48.878;9.394;2023-08-24T10:43:04;32.20;99.90
10468;DHT22;5281;48.878;9.394;2023-08-24T10:45:54;32.40;99.90
10468;DHT22;5281;48.878;9.394;2023-08-24T10:48:23;32.60;99.90
10468;DHT22;5281;48.878;9.394;2023-08-24T10:51:16;32.90;99.90
10468;DHT22;5281;48.878;9.394;2023-08-24T10:53:46;33.10;99.90
10468;DHT22;5281;48.878;9.394;2023-08-24T10:56:13;33.20;99.80
10468;DHT22;5281;48.878;9.394;2023-08-24T10:58:40;33.30;99.90
10468;DHT22;5281;48.878;9.394;2023-08-24T11:01:08;33.30;99.90
10468;DHT22;5281;48.878;9.394;2023-08-24T11:03:41;33.30;99.80
10468;DHT22;5281;48.878;9.394;2023-08-24T11:06:19;33.20;99.90
10468;DHT22;5281;48.878;9.394;2023-08-24T11:08:47;33.20;99.90
10468;DHT22;5281;48.878;9.394;2023-08-24T11:11:20;33.10;99.90
10468;DHT22;5281;48.878;9.394;2023-08-24T11:14:15;33.20;99.80
10468;DHT22;5281;48.878;9.394;2023-08-24T11:16:45;33.30;99.70
10468;DHT22;5281;48.878;9.394;2023-08-24T11:19:15;33.40;99.30
10468;DHT22;5281;48.878;9.394;2023-08-24T11:21:43;33.40;99.10
10468;DHT22;5281;48.878;9.394;2023-08-24T11:24:10;33.50;99.00
10468;DHT22;5281;48.878;9.394;2023-08-24T11:26:41;33.50;98.60
10468;DHT22;5281;48.878;9.394;2023-08-24T11:29:08;33.50;98.70
10468;DHT22;5281;48.878;9.394;2023-08-24T11:31:35;33.50;98.40
10468;DHT22;5281;48.878;9.394;2023-08-24T11:34:03;33.50;98.40
10468;DHT22;5281;48.878;9.394;2023-08-24T11:36:31;33.30;98.60
10468;DHT22;5281;48.878;9.394;2023-08-24T11:38:59;33.40;98.60
10468;DHT22;5281;48.878;9.394;2023-08-24T11:41:26;33.50;98.30
10468;DHT22;5281;48.878;9.394;2023-08-24T11:43:59;33.40;98.30
10468;DHT22;5281;48.878;9.394;2023-08-24T11:46:28;33.30;98.20
10468;DHT22;5281;48.878;9.394;2023-08-24T11:48:57;33.40;98.20
10468;DHT22;5281;48.878;9.394;2023-08-24T11:51:24;33.40;98.30
10468;DHT22;5281;48.878;9.394;2023-08-24T11:53:52;33.40;98.20
10468;DHT22;5281;48.878;9.394;2023-08-24T11:56:19;33.40;98.30
10468;DHT22;5281;48.878;9.394;2023-08-24T11:58:48;33.50;98.60
10468;DHT22;5281;48.878;9.394;2023-08-24T12:01:16;33.70;97.90
10468;DHT22;5281;48.878;9.394;2023-08-24T12:03:43;33.70;97.80
10468;DHT22;5281;48.878;9.394;2023-08-24T12:06:11;33.80;97.90
10468;DHT22;5281;48.878;9.394;2023-08-24T12:08:39;33.90;97.50
10468;DHT22;5281;48.878;9.394;2023-08-24T12:11:14;34.10;97.40
10468;DHT22;5281;48.878;9.394;2023-08-24T12:13:46;34.20;96.90
10468;DHT22;5281;48.878;9.394;2023-08-24T12:16:13;34.30;97.10
10468;DHT22;5281;48.878;9.394;2023-08-24T12:18:49;34.20;96.90
10468;DHT22;5281;48.878;9.394;2023-08-24T12:21:17;34.10;97.00
10468;DHT22;5281;48.878;9.394;2023-08-24T12:23:45;34.20;96.80
10468;DHT22;5281;48.878;9.394;2023-08-24T12:26:22;34.30;96.80
10468;DHT22;5281;48.878;9.394;2023-08-24T12:28:49;34.40;96.80
10468;DHT22;5281;48.878;9.394;2023-08-24T12:31:17;34.50;96.50
10468;DHT22;5281;48.878;9.394;2023-08-24T12:33:45;34.80;96.10
10468;DHT22;5281;48.878;9.394;2023-08-24T12:36:12;34.90;95.90
10468;DHT22;5281;48.878;9.394;2023-08-24T12:38:39;35.00;95.70
10468;DHT22;5281;48.878;9.394;2023-08-24T12:41:07;35.00;95.30
10468;DHT22;5281;48.878;9.394;2023-08-24T12:43:35;35.10;95.50
10468;DHT22;5281;48.878;9.394;2023-08-24T12:46:02;35.10;95.00
10468;DHT22;5281;48.878;9.394;2023-08-24T12:48:28;35.20;95.00
10468;DHT22;5281;48.878;9.394;2023-08-24T12:50:55;35.40;94.50
10468;DHT22;5281;48.878;9.394;2023-08-24T12:53:22;35.40;94.50
10468;DHT22;5281;48.878;9.394;2023-08-24T12:55:48;35.50;94.30
10468;DHT22;5281;48.878;9.394;2023-08-24T12:58:15;35.70;94.10
10468;DHT22;5281;48.878;9.394;2023-08-24T13:00:44;35.80;93.70
10468;DHT22;5281;48.878;9.394;2023-08-24T13:03:11;36.00;93.30
10468;DHT22;5281;48.878;9.394;2023-08-24T13:05:38;36.10;92.70
10468;DHT22;5281;48.878;9.394;2023-08-24T13:08:05;36.10;92.40
10468;DHT22;5281;48.878;9.394;2023-08-24T13:10:32;36.10;92.20
10468;DHT22;5281;48.878;9.394;2023-08-24T13:12:59;36.20;92.30
10468;DHT22;5281;48.878;9.394;2023-08-24T13:15:25;36.30;91.60
10468;DHT22;5281;48.878;9.394;2023-08-24T13:17:54;36.50;91.40
10468;DHT22;5281;48.878;9.394;2023-08-24T13:20:21;36.70;91.30
10468;DHT22;5281;48.878;9.394;2023-08-24T13:22:48;36.80;90.70
10468;DHT22;5281;48.878;9.394;2023-08-24T13:25:15;36.80;90.50
10468;DHT22;5281;48.878;9.394;2023-08-24T13:27:42;36.80;90.10
10468;DHT22;5281;48.878;9.394;2023-08-24T13:30:09;36.90;89.90
10468;DHT22;5281;48.878;9.394;2023-08-24T13:32:35;37.20;88.80
10468;DHT22;5281;48.878;9.394;2023-08-24T13:35:04;37.40;87.80
10468;DHT22;5281;48.878;9.394;2023-08-24T13:37:31;37.50;87.70
10468;DHT22;5281;48.878;9.394;2023-08-24T13:39:58;37.30;87.40
10468;DHT22;5281;48.878;9.394;2023-08-24T13:42:25;37.20;87.30
10468;DHT22;5281;48.878;9.394;2023-08-24T13:44:52;37.10;86.60
10468;DHT22;5281;48.878;9.394;2023-08-24T13:47:18;37.20;86.20
10468;DHT22;5281;48.878;9.394;2023-08-24T13:49:47;37.20;86.90
10468;DHT22;5281;48.878;9.394;2023-08-24T13:52:15;37.30;86.00
10468;DHT22;5281;48.878;9.394;2023-08-24T13:54:44;37.30;84.90
10468;DHT22;5281;48.878;9.394;2023-08-24T13:57:11;37.20;85.00
10468;DHT22;5281;48.878;9.394;2023-08-24T13:59:38;37.20;85.10
10468;DHT22;5281;48.878;9.394;2023-08-24T14:02:06;37.10;85.00
10468;DHT22;5281;48.878;9.394;2023-08-24T14:04:33;37.00;85.20
10468;DHT22;5281;48.878;9.394;2023-08-24T14:07:00;36.90;85.50
10468;DHT22;5281;48.878;9.394;2023-08-24T14:09:28;36.90;85.00
10468;DHT22;5281;48.878;9.394;2023-08-24T14:11:56;36.90;84.70
10468;DHT22;5281;48.878;9.394;2023-08-24T14:14:22;36.90;84.20
10468;DHT22;5281;48.878;9.394;2023-08-24T14:16:54;36.70;84.80
10468;DHT22;5281;48.878;9.394;2023-08-24T14:19:21;36.60;84.60
10468;DHT22;5281;48.878;9.394;2023-08-24T14:21:47;36.60;84.40
10468;DHT22;5281;48.878;9.394;2023-08-24T14:24:14;36.60;85.00
10468;DHT22;5281;48.878;9.394;2023-08-24T14:26:43;36.70;84.80
10468;DHT22;5281;48.878;9.394;2023-08-24T14:29:11;36.80;84.30
10468;DHT22;5281;48.878;9.394;2023-08-24T14:31:38;36.90;83.70
10468;DHT22;5281;48.878;9.394;2023-08-24T14:34:05;36.90;83.80
10468;DHT22;5281;48.878;9.394;2023-08-24T14:36:32;37.00;83.40
10468;DHT22;5281;48.878;9.394;2023-08-24T14:38:59;37.10;83.10
10468;DHT22;5281;48.878;9.394;2023-08-24T14:41:25;37.20;82.70
10468;DHT22;5281;48.878;9.394;2023-08-24T14:43:53;37.10;83.20
10468;DHT22;5281;48.878;9.394;2023-08-24T14:46:20;37.00;83.30
10468;DHT22;5281;48.878;9.394;2023-08-24T14:48:47;36.90;83.40
10468;DHT22;5281;48.878;9.394;2023-08-24T14:51:13;36.80;83.80
10468;DHT22;5281;48.878;9.394;2023-08-24T14:53:40;36.50;84.70
10468;DHT22;5281;48.878;9.394;2023-08-24T14:56:07;36.30;85.50
10468;DHT22;5281;48.878;9.394;2023-08-24T14:58:33;36.20;86.40
10468;DHT22;5281;48.878;9.394;2023-08-24T15:01:02;35.80;88.40
10468;DHT22;5281;48.878;9.394;2023-08-24T15:03:30;35.40;90.00
10468;DHT22;5281;48.878;9.394;2023-08-24T15:05:58;35.00;90.50
10468;DHT22;5281;48.878;9.394;2023-08-24T15:08:25;34.80;90.70
10468;DHT22;5281;48.878;9.394;2023-08-24T15:10:54;34.60;91.00
10468;DHT22;5281;48.878;9.394;2023-08-24T15:13:21;34.30;91.40
10468;DHT22;5281;48.878;9.394;2023-08-24T15:15:47;34.30;91.70
10468;DHT22;5281;48.878;9.394;2023-08-24T15:18:15;34.20;92.90
10468;DHT22;5281;48.878;9.394;2023-08-24T15:20:42;33.70;93.10
10468;DHT22;5281;48.878;9.394;2023-08-24T15:23:09;32.90;95.00
10468;DHT22;5281;48.878;9.394;2023-08-24T15:25:36;30.70;99.90
10468;DHT22;5281;48.878;9.394;2023-08-24T15:28:03;28.00;99.90
10468;DHT22;5281;48.878;9.394;2023-08-24T15:30:30;26.70;99.90
10468;DHT22;5281;48.878;9.394;2023-08-24T15:32:56;25.60;99.90
10468;DHT22;5281;48.878;9.394;2023-08-24T15:35:24;24.60;99.90
10468;DHT22;5281;48.878;9.394;2023-08-24T15:37:51;23.80;99.90
10468;DHT22;5281;48.878;9.394;2023-08-24T15:40:18;23.10;99.90
10468;DHT22;5281;48.878;9.394;2023-08-24T15:42:45;22.40;99.90
10468;DHT22;5281;48.878;9.394;2023-08-24T15:45:12;21.90;99.90
10468;DHT22;5281;48.878;9.394;2023-08-24T15:47:39;21.50;99.90